Time;durP1;ratioP1;P1;durP2;ratioP2;P2;SDS_P1;SDS_P2;PMS_P1;PMS_P2;Temp;Humidity;BMP_temperature;BMP_pressure;BME280_temperature;BME280_humidity;BME280_pressure;Samples;Min_cycle;Max_cycle;Signal;HPM_P1;HPM_P2
2022/01/27 00:03:15;;;;;;;31.57;19.10;;;;;;;1.06;97.13;100478.72;1787622;80;25751;-76
2022/01/27 00:05:28;;;;;;;36.25;19.48;;;;;;;1.06;96.93;100480.05;1786659;80;25369;-76
2022/01/27 00:17:12;;;;;;;;;;;;;;;1.01;96.87;100473.30;1792093;80;25689;-76
2022/01/27 00:19:29;;;;;;;30.60;18.45;;;;;;;0.99;96.95;100478.88;1785005;80;25789;-75
2022/01/27 00:21:55;;;;;;;32.80;18.92;;;;;;;0.97;96.98;100476.98;1789766;80;25612;-75
2022/01/27 00:24:22;;;;;;;40.83;21.50;;;;;;;0.96;97.17;100486.01;1787276;80;27328;-76
2022/01/27 00:26:48;;;;;;;33.78;19.35;;;;;;;0.95;97.13;100475.05;1789375;80;25618;-76
2022/01/27 00:29:15;;;;;;;35.20;19.67;;;;;;;0.95;97.29;100473.72;1787280;80;25560;-76
2022/01/27 00:31:42;;;;;;;33.50;17.37;;;;;;;0.94;97.06;100472.13;1790009;80;26194;-75
2022/01/27 00:34:08;;;;;;;34.85;19.62;;;;;;;0.93;96.98;100475.83;1787182;80;25203;-74
2022/01/27 00:36:35;;;;;;;40.65;19.80;;;;;;;0.89;96.96;100465.38;1765425;80;27902;-76
2022/01/27 00:39:01;;;;;;;31.68;17.48;;;;;;;0.87;96.73;100466.12;1762766;80;25478;-75
2022/01/27 00:41:28;;;;;;;33.92;17.80;;;;;;;0.84;96.87;100458.10;1789752;80;25622;-76
2022/01/27 00:43:55;;;;;;;36.85;17.60;;;;;;;0.82;96.91;100462.03;1762845;80;26291;-76
2022/01/27 00:46:22;;;;;;;36.00;20.17;;;;;;;0.81;97.03;100455.11;1767861;81;25599;-76
2022/01/27 00:48:51;;;;;;;30.02;17.65;;;;;;;0.81;97.18;100456.45;1791914;80;27312;-76
2022/01/27 00:51:23;;;;;;;30.30;17.87;;;;;;;0.80;97.17;100462.30;1792285;80;25452;-76
2022/01/27 00:59:22;;;;;;;30.32;17.25;;;;;;;0.72;96.83;100460.82;1792159;80;25420;-75
2022/01/27 01:01:40;;;;;;;31.23;17.65;;;;;;;0.72;97.23;100451.50;1788844;80;27891;-76
2022/01/27 01:04:05;;;;;;;31.02;18.00;;;;;;;0.71;97.00;100461.06;1790383;78;25852;-77
2022/01/27 01:06:43;;;;;;;30.17;18.35;;;;;;;0.71;97.55;100449.08;1791998;80;25676;-77
2022/01/27 01:17:02;;;;;;;28.07;16.70;;;;;;;0.72;97.96;100452.84;1792083;80;25672;-75
2022/01/27 01:19:45;;;;;;;29.67;16.07;;;;;;;0.71;97.74;100453.87;1789704;80;25772;-75
2022/01/27 01:32:56;;;;;;;38.25;18.77;;;;;;;0.80;97.97;100438.84;1791565;80;25623;-75
2022/01/27 01:35:35;;;;;;;30.02;16.23;;;;;;;0.81;97.93;100437.80;1792149;80;25582;-76
2022/01/27 01:37:58;;;;;;;30.77;17.23;;;;;;;0.80;98.10;100435.67;1791418;80;25389;-75
2022/01/27 01:40:25;;;;;;;36.05;17.37;;;;;;;0.80;97.96;100439.67;1792458;80;27314;-75
2022/01/27 01:42:52;;;;;;;36.88;19.02;;;;;;;0.81;98.20;100440.47;1789260;80;25396;-75
2022/01/27 01:45:21;;;;;;;33.95;16.93;;;;;;;0.81;98.27;100455.11;1754920;81;25447;-75
2022/01/27 01:47:49;;;;;;;38.78;19.10;;;;;;;0.81;98.24;100443.13;1748483;81;26268;-74
2022/01/27 01:50:16;;;;;;;35.08;16.52;;;;;;;0.81;98.34;100438.60;1702101;83;25496;-75
2022/01/27 01:52:45;;;;;;;35.92;17.65;;;;;;;0.81;98.30;100430.61;1770604;81;27334;-75
2022/01/27 01:55:13;;;;;;;38.42;18.52;;;;;;;0.83;98.17;100435.70;1754803;81;25642;-74
2022/01/27 01:57:39;;;;;;;35.38;16.75;;;;;;;0.84;98.39;100438.66;1770584;81;25468;-74
2022/01/27 02:00:08;;;;;;;37.15;17.50;;;;;;;0.84;98.33;100434.13;1754911;81;26351;-74
2022/01/27 02:02:35;;;;;;;34.03;17.57;;;;;;;0.85;98.41;100433.09;1770786;81;25407;-75
2022/01/27 02:05:02;;;;;;;39.03;19.07;;;;;;;0.85;98.35;100434.43;1770588;81;27422;-75
2022/01/27 02:07:47;;;;;;;37.30;19.60;;;;;;;0.86;98.43;100435.23;1770499;81;25588;-75
2022/01/27 02:10:33;;;;;;;37.98;19.25;;;;;;;0.87;98.66;100434.16;1768826;80;25650;-75
2022/01/27 02:18:14;;;;;;;43.38;18.60;;;;;;;0.87;98.65;100434.99;1754938;81;27503;-74
2022/01/27 02:20:41;;;;;;;41.95;20.15;;;;;;;0.88;98.70;100434.45;1731252;81;25691;-74
2022/01/27 02:23:11;;;;;;;39.58;18.48;;;;;;;0.88;98.88;100451.77;1770622;80;25155;-74
2022/01/27 02:25:38;;;;;;;46.68;20.23;;;;;;;0.87;98.56;100427.00;1754929;81;26241;-75
2022/01/27 02:28:05;;;;;;;40.70;18.55;;;;;;;0.87;98.74;100422.17;1770976;80;25562;-75
2022/01/27 02:30:32;;;;;;;42.83;19.12;;;;;;;0.86;98.71;100425.38;1755085;81;27423;-75
2022/01/27 02:32:59;;;;;;;39.88;18.90;;;;;;;0.85;98.74;100422.45;1770533;81;25575;-75
2022/01/27 02:35:30;;;;;;;43.52;20.50;;;;;;;0.87;98.65;100424.84;1754921;81;25553;-75
2022/01/27 02:37:58;;;;;;;41.30;18.27;;;;;;;0.86;98.94;100421.91;1770579;81;25657;-75
2022/01/27 02:40:36;;;;;;;44.50;19.45;;;;;;;0.87;98.81;100411.52;1754857;81;25463;-75
2022/01/27 02:43:05;;;;;;;50.40;20.40;;;;;;;0.87;98.97;100402.20;1769959;80;27343;-75
2022/01/27 02:45:46;;;;;;;47.83;20.45;;;;;;;0.87;98.98;100393.70;1753077;81;25233;-75
2022/01/27 02:48:13;;;;;;;44.30;19.48;;;;;;;0.88;98.93;100400.63;1747386;81;25586;-75
2022/01/27 02:50:40;;;;;;;48.42;19.27;;;;;;;0.88;99.12;100408.62;1752993;81;26173;-75
2022/01/27 02:53:09;;;;;;;52.40;21.12;;;;;;;0.88;99.03;100405.16;1753022;81;25722;-75
2022/01/27 02:55:37;;;;;;;47.93;20.75;;;;;;;0.88;99.13;100407.83;1752967;81;28093;-75
2022/01/27 02:58:05;;;;;;;49.38;20.25;;;;;;;0.89;98.87;100410.25;1752880;81;25639;-75
2022/01/27 03:00:33;;;;;;;52.35;20.92;;;;;;;0.89;98.90;100407.59;1766192;81;25436;-75
2022/01/27 03:03:00;;;;;;;53.52;20.68;;;;;;;0.88;99.03;100403.83;1752918;81;25629;-75
2022/01/27 03:05:27;;;;;;;56.20;21.05;;;;;;;0.88;98.99;100394.51;1752949;81;25622;-75
2022/01/27 03:07:53;;;;;;;49.48;20.23;;;;;;;0.88;99.03;100399.30;1752927;81;27441;-75
2022/01/27 03:10:23;;;;;;;53.75;20.08;;;;;;;0.90;98.92;100399.06;1752875;81;25585;-75
2022/01/27 03:12:57;;;;;;;;;;;;;;;0.90;98.99;100401.22;1747100;81;25454;-76
2022/01/27 03:15:19;;;;;;;48.48;20.17;;;;;;;0.92;98.92;100400.98;1747823;81;25621;-75
2022/01/27 03:17:45;;;;;;;55.10;20.72;;;;;;;0.90;98.93;100395.89;1748553;82;25387;-76
2022/01/27 03:20:33;;;;;;;50.48;20.65;;;;;;;0.92;99.17;100399.12;1748522;82;27253;-76
2022/01/27 03:23:01;;;;;;;44.13;19.07;;;;;;;0.91;99.02;100384.17;1735067;82;25429;-76
2022/01/27 03:25:27;;;;;;;52.17;19.57;;;;;;;0.90;98.97;100375.92;1714108;82;25664;-76
2022/01/27 03:27:54;;;;;;;50.92;20.30;;;;;;;0.91;98.97;100378.05;1735223;82;26197;-76
2022/01/27 03:30:21;;;;;;;53.15;21.52;;;;;;;0.90;99.28;100378.58;1735287;82;25398;-76
2022/01/27 03:32:47;;;;;;;50.05;22.32;;;;;;;0.89;99.15;100372.96;1735250;82;27394;-76
2022/01/27 03:35:14;;;;;;;64.15;21.07;;;;;;;0.90;99.22;100374.59;1735148;82;25727;-76
2022/01/27 03:37:41;;;;;;;53.68;22.37;;;;;;;0.91;99.06;100375.38;1735337;82;25579;-76
2022/01/27 03:40:09;;;;;;;56.53;20.92;;;;;;;0.90;99.53;100371.92;1735169;82;26394;-76
2022/01/27 03:42:43;;;;;;;58.20;22.10;;;;;;;0.90;99.65;100367.93;1735242;81;25417;-76
2022/01/27 03:45:05;;;;;;;59.08;21.00;;;;;;;0.90;99.73;100373.77;1734213;82;27455;-76
2022/01/27 03:47:32;;;;;;;51.37;21.23;;;;;;;0.89;99.39;100372.96;1735082;82;25676;-76
2022/01/27 03:49:58;;;;;;;58.25;22.80;;;;;;;0.90;99.29;100379.91;1735192;82;25457;-76
2022/01/27 03:52:25;;;;;;;59.93;20.95;;;;;;;0.90;99.41;100373.26;1735159;82;26170;-76
2022/01/27 03:54:51;;;;;;;56.92;20.85;;;;;;;0.91;99.79;100376.19;1735211;82;25423;-76
2022/01/27 03:57:18;;;;;;;54.90;20.65;;;;;;;0.90;99.46;100379.91;1735267;82;27491;-76
2022/01/27 03:59:44;;;;;;;56.68;21.65;;;;;;;0.89;99.57;100372.96;1735123;82;25679;-77
2022/01/27 04:02:11;;;;;;;58.10;22.80;;;;;;;0.90;99.63;100370.59;1713953;82;25757;-76
2022/01/27 04:04:38;;;;;;;50.23;21.00;;;;;;;0.90;99.90;100381.25;1735143;82;25627;-76
2022/01/27 04:07:04;;;;;;;54.38;21.65;;;;;;;0.91;99.91;100378.05;1735219;82;25466;-76
2022/01/27 04:09:31;;;;;;;60.75;21.37;;;;;;;0.90;100.00;100375.92;1735353;82;27376;-76
2022/01/27 04:11:57;;;;;;;56.33;21.75;;;;;;;0.90;99.86;100372.42;1735268;82;25457;-76
2022/01/27 04:14:24;;;;;;;45.88;19.02;;;;;;;0.91;100.00;100371.39;1735370;82;25562;-76
2022/01/27 04:16:51;;;;;;;54.48;19.85;;;;;;;0.91;99.89;100362.06;1735294;82;26143;-76
2022/01/27 04:19:17;;;;;;;59.35;21.42;;;;;;;0.91;99.88;100362.87;1735348;82;25470;-76
2022/01/27 04:21:44;;;;;;;48.00;20.45;;;;;;;0.94;100.00;100358.92;1749064;81;27837;-76
2022/01/27 04:24:11;;;;;;;50.30;19.98;;;;;;;0.95;99.80;100357.06;1770849;81;25381;-76
2022/01/27 04:26:45;;;;;;;55.33;20.40;;;;;;;0.95;99.90;100350.41;1795248;79;25531;-76
2022/01/27 04:29:09;;;;;;;52.43;19.65;;;;;;;0.95;99.86;100341.87;1794599;79;25617;-76
2022/01/27 04:31:39;;;;;;;49.70;20.00;;;;;;;0.96;99.81;100342.70;1795380;79;25612;-76
2022/01/27 04:34:04;;;;;;;52.38;20.82;;;;;;;0.95;99.82;100331.75;1794902;79;27331;-76
2022/01/27 04:36:34;;;;;;;49.50;19.12;;;;;;;0.96;99.83;100340.84;1795177;79;25710;-76
2022/01/27 04:41:37;;;;;;;45.28;19.27;;;;;;;0.97;99.77;100346.45;1795238;79;25825;-76
2022/01/27 04:45:00;;;;;;;53.90;20.17;;;;;;;0.98;99.75;100349.39;1793460;79;25469;-76
2022/01/27 04:49:06;;;;;;;55.65;20.70;;;;;;;1.00;99.95;100346.48;1773879;79;25620;-76
2022/01/27 04:51:32;;;;;;;56.58;20.17;;;;;;;1.00;100.00;100341.95;1795257;79;25387;-76
2022/01/27 04:54:15;;;;;;;52.08;20.45;;;;;;;1.00;99.83;100333.96;1795194;79;25683;-76
2022/01/27 04:56:36;;;;;;;55.40;19.92;;;;;;;1.01;99.78;100326.80;1793803;79;25546;-76
2022/01/27 04:59:08;;;;;;;54.15;19.98;;;;;;;1.01;99.82;100334.25;1795106;79;27961;-76
2022/01/27 05:01:44;;;;;;;48.92;18.98;;;;;;;1.02;99.80;100319.06;1794661;79;25531;-77
2022/01/27 05:04:15;;;;;;;52.98;21.60;;;;;;;1.03;100.00;100320.16;1773182;79;25656;-76
2022/01/27 05:06:40;;;;;;;53.02;19.62;;;;;;;1.02;99.86;100313.73;1794882;79;25692;-76
2022/01/27 05:09:07;;;;;;;55.30;20.60;;;;;;;1.03;99.79;100321.49;1795260;79;25559;-75
2022/01/27 05:11:39;;;;;;;50.20;18.40;;;;;;;1.02;99.99;100321.23;1795238;79;28060;-76
2022/01/27 05:14:21;;;;;;;47.27;19.60;;;;;;;1.02;99.69;100309.74;1794309;79;25770;-76
2022/01/27 05:16:46;;;;;;;52.43;19.95;;;;;;;1.02;99.79;100310.58;1795103;79;25504;-75
2022/01/27 05:19:13;;;;;;;49.70;19.35;;;;;;;1.02;99.97;100303.91;1795146;79;26329;-75
2022/01/27 05:21:40;;;;;;;56.53;20.00;;;;;;;1.02;99.82;100293.77;1793369;79;25657;-75
2022/01/27 05:24:07;;;;;;;50.05;19.50;;;;;;;1.02;99.77;100287.93;1787412;80;27307;-75
2022/01/27 05:26:34;;;;;;;51.60;19.73;;;;;;;1.02;99.79;100289.77;1787267;80;25401;-75
2022/01/27 05:29:04;;;;;;;47.80;18.05;;;;;;;1.03;99.83;100284.73;1787402;80;25438;-75
2022/01/27 05:31:30;;;;;;;44.85;17.87;;;;;;;1.01;99.98;100280.98;1766895;80;25785;-75
2022/01/27 05:33:57;;;;;;;48.28;17.42;;;;;;;1.01;99.85;100278.31;1787425;80;25408;-75
2022/01/27 05:36:23;;;;;;;46.63;16.87;;;;;;;1.02;99.67;100285.27;1792421;80;27454;-75
2022/01/27 05:38:50;;;;;;;50.88;16.48;;;;;;;1.03;99.71;100284.20;1792323;80;25667;-75
2022/01/27 05:41:17;;;;;;;40.60;18.95;;;;;;;1.02;99.63;100283.94;1770163;80;25596;-75
2022/01/27 05:43:44;;;;;;;46.10;16.37;;;;;;;1.03;99.71;100279.41;1792396;80;25619;-75
2022/01/27 05:46:12;;;;;;;48.55;17.55;;;;;;;1.03;99.61;100287.39;1792481;80;25539;-75
2022/01/27 05:48:38;;;;;;;48.05;18.45;;;;;;;1.03;99.69;100275.41;1792412;80;27884;-75
2022/01/27 05:51:06;;;;;;;45.30;17.50;;;;;;;1.03;100.00;100286.06;1792344;80;25567;-76
2022/01/27 05:53:33;;;;;;;48.33;17.80;;;;;;;1.04;99.73;100275.16;1792423;80;25370;-76
2022/01/27 05:56:00;;;;;;;50.65;18.55;;;;;;;1.04;99.77;100272.50;1792381;79;25740;-76
2022/01/27 05:58:28;;;;;;;47.98;18.73;;;;;;;1.04;99.75;100273.83;1792488;80;25438;-75
2022/01/27 06:00:55;;;;;;;46.77;18.37;;;;;;;1.06;99.67;100274.92;1792627;80;27330;-75
2022/01/27 06:03:23;;;;;;;49.38;18.82;;;;;;;1.07;99.66;100280.01;1792357;80;25568;-76
2022/01/27 06:05:50;;;;;;;58.35;19.60;;;;;;;1.08;99.97;100267.48;1792504;80;25551;-76
2022/01/27 06:08:18;;;;;;;52.20;17.90;;;;;;;1.07;99.89;100261.86;1792481;79;35068;-76
2022/01/27 06:10:45;;;;;;;50.40;19.07;;;;;;;1.06;99.74;100263.73;1792494;80;25611;-76
2022/01/27 06:13:11;;;;;;;44.35;17.55;;;;;;;1.06;99.75;100257.07;1792439;80;27364;-76
2022/01/27 06:15:38;;;;;;;55.75;19.40;;;;;;;1.06;99.78;100258.94;1790966;80;26280;-75
2022/01/27 06:18:05;;;;;;;48.70;18.20;;;;;;;1.07;99.82;100270.68;1790952;79;25675;-76
2022/01/27 06:20:32;;;;;;;53.63;18.87;;;;;;;1.06;99.94;100255.73;1791704;80;26319;-76
2022/01/27 06:22:59;;;;;;;53.40;19.37;;;;;;;1.07;99.86;100256.53;1763127;80;25716;-74
2022/01/27 06:25:30;;;;;;;49.88;17.65;;;;;;;1.06;100.00;100256.27;1763771;81;28180;-74
2022/01/27 06:27:57;;;;;;;55.52;19.37;;;;;;;1.05;99.93;100251.45;1763694;81;25576;-75
2022/01/27 06:30:24;;;;;;;49.73;18.92;;;;;;;1.06;100.00;100249.61;1764151;81;25576;-78
2022/01/27 06:32:51;;;;;;;52.03;19.82;;;;;;;1.06;100.00;100244.28;1763814;81;25830;-78
2022/01/27 06:35:18;;;;;;;55.88;19.67;;;;;;;1.05;100.00;100237.34;1763886;81;25370;-70
2022/01/27 06:37:47;;;;;;;48.50;18.23;;;;;;;1.06;99.98;100242.42;1763749;81;26858;-72
2022/01/27 06:40:15;;;;;;;52.48;18.02;;;;;;;1.07;100.00;100241.88;1763878;81;25676;-80
2022/01/27 06:42:43;;;;;;;56.70;20.72;;;;;;;1.08;100.00;100228.31;1764344;81;25571;-78
2022/01/27 06:45:11;;;;;;;52.17;19.27;;;;;;;1.08;100.00;100224.86;1763762;81;25609;-78
2022/01/27 06:47:38;;;;;;;49.50;18.85;;;;;;;1.08;100.00;100232.31;1763805;81;25687;-78
2022/01/27 06:50:06;;;;;;;51.83;20.72;;;;;;;1.08;100.00;100229.66;1742481;81;27316;-78
2022/01/27 06:52:34;;;;;;;59.58;19.65;;;;;;;1.09;100.00;100216.63;1763815;81;25654;-78
2022/01/27 06:55:03;;;;;;;47.50;17.60;;;;;;;1.10;100.00;100218.22;1763940;81;25418;-78
2022/01/27 06:57:33;;;;;;;47.48;18.85;;;;;;;1.12;100.00;100221.97;1763785;81;25620;-79
2022/01/27 07:00:00;;;;;;;53.95;20.40;;;;;;;1.10;100.00;100218.75;1763992;81;25621;-78
2022/01/27 07:02:27;;;;;;;49.85;20.95;;;;;;;1.09;100.00;100216.63;1763752;81;27257;-78
2022/01/27 07:04:53;;;;;;;55.98;19.98;;;;;;;1.10;100.00;100207.56;1763399;81;25644;-77
2022/01/27 07:07:20;;;;;;;60.65;21.85;;;;;;;1.09;100.00;100205.14;1763520;81;25612;-80
2022/01/27 07:09:47;;;;;;;55.85;20.15;;;;;;;1.10;100.00;100200.90;1763765;81;25573;-77
2022/01/27 07:12:13;;;;;;;47.75;20.17;;;;;;;1.11;100.00;100202.52;1763563;81;25611;-77
2022/01/27 07:14:40;;;;;;;50.65;20.15;;;;;;;1.13;100.00;100192.95;1763460;81;27328;-77
2022/01/27 07:17:06;;;;;;;46.98;20.12;;;;;;;1.16;100.00;100197.79;1763342;81;25679;-77
2022/01/27 07:19:34;;;;;;;54.05;22.58;;;;;;;1.17;100.00;100198.59;1763452;81;25723;-81
2022/01/27 07:22:00;;;;;;;55.15;22.62;;;;;;;1.17;100.00;100194.05;1763890;81;25657;-79
2022/01/27 07:24:27;;;;;;;49.77;20.45;;;;;;;1.17;100.00;100207.38;1766308;81;25623;-80
2022/01/27 07:26:54;;;;;;;57.62;21.37;;;;;;;1.09;100.00;100196.64;1766119;81;27298;-81
2022/01/27 07:29:20;;;;;;;55.28;21.42;;;;;;;1.18;100.00;100199.67;1765860;81;25671;-80
2022/01/27 07:31:47;;;;;;;55.73;21.97;;;;;;;1.21;100.00;100201.84;1766069;81;26189;-80
2022/01/27 07:34:13;;;;;;;58.48;23.73;;;;;;;1.23;100.00;100209.59;1765995;81;25774;-80
2022/01/27 07:36:40;;;;;;;53.73;21.15;;;;;;;1.21;100.00;100211.17;1766126;81;25714;-80
2022/01/27 07:39:13;;;;;;;56.92;22.25;;;;;;;1.22;100.00;100205.30;1766113;81;27902;-81
2022/01/27 07:41:35;;;;;;;58.68;23.12;;;;;;;1.21;100.00;100206.34;1765296;80;25788;-80
2022/01/27 07:44:02;;;;;;;53.87;23.15;;;;;;;1.18;100.00;100205.53;1766936;81;25626;-82
2022/01/27 07:46:28;;;;;;;59.45;22.37;;;;;;;1.17;100.00;100203.37;1766742;81;25529;-80
2022/01/27 07:48:55;;;;;;;67.37;23.15;;;;;;;1.17;100.00;100206.05;1766766;81;25806;-81
2022/01/27 07:51:22;;;;;;;53.52;22.15;;;;;;;1.19;100.00;100208.46;1766475;81;27491;-80
2022/01/27 07:53:49;;;;;;;61.50;22.95;;;;;;;1.19;100.00;100208.46;1766453;81;25438;-80
2022/01/27 07:56:15;;;;;;;58.75;24.00;;;;;;;1.22;100.00;100206.64;1766695;81;25481;-80
2022/01/27 07:58:43;;;;;;;54.67;22.60;;;;;;;1.23;100.00;100198.40;1766615;81;26315;-80
2022/01/27 08:01:10;;;;;;;52.50;23.25;;;;;;;1.26;99.98;100185.09;1766762;81;25570;-80
2022/01/27 08:03:37;;;;;;;61.18;24.20;;;;;;;1.27;99.79;100186.71;1744913;81;27343;-80
2022/01/27 08:06:05;;;;;;;57.83;23.60;;;;;;;1.26;99.78;100175.25;1766723;81;25575;-80
2022/01/27 08:08:33;;;;;;;57.75;23.77;;;;;;;1.25;99.69;100174.17;1766804;81;25707;-80
2022/01/27 08:11:00;;;;;;;61.53;24.80;;;;;;;1.27;99.75;100177.38;1766911;81;25684;-80
2022/01/27 08:13:27;;;;;;;61.53;23.90;;;;;;;1.27;99.69;100158.19;1766838;81;25409;-80
2022/01/27 08:15:54;;;;;;;61.10;25.62;;;;;;;1.29;99.71;100143.29;1744537;81;27327;-80
2022/01/27 08:18:21;;;;;;;61.05;23.92;;;;;;;1.29;99.69;100131.30;1766543;81;25672;-80
2022/01/27 08:20:49;;;;;;;67.30;25.70;;;;;;;1.29;99.61;100150.78;1766913;81;25714;-80
2022/01/27 08:23:15;;;;;;;65.17;25.88;;;;;;;1.27;99.52;100129.42;1765641;81;25711;-80
2022/01/27 08:25:48;;;;;;;69.22;26.02;;;;;;;1.28;99.56;100141.70;1764362;81;25409;-80
2022/01/27 08:28:22;;;;;;;;;;;;;;;1.30;99.52;100156.37;1766149;81;27299;-80
2022/01/27 08:30:45;;;;;;;66.40;23.90;;;;;;;1.29;99.61;100144.11;1762645;81;25423;-80
2022/01/27 08:33:14;;;;;;;62.98;25.75;;;;;;;1.28;99.51;100127.84;1763364;81;25711;-80
2022/01/27 08:35:37;;;;;;;61.20;25.32;;;;;;;1.24;99.64;100118.75;1763083;81;25689;-79
2022/01/27 08:38:03;;;;;;;68.57;25.97;;;;;;;1.27;99.49;100122.75;1764626;81;25385;-80
2022/01/27 08:40:30;;;;;;;63.48;26.70;;;;;;;1.27;99.55;100119.55;1765319;81;27237;-79
2022/01/27 08:42:57;;;;;;;61.92;27.93;;;;;;;1.28;99.50;100119.05;1766046;81;25742;-79
2022/01/27 08:45:25;;;;;;;66.80;27.05;;;;;;;1.29;99.48;100116.14;1765430;81;25627;-80
2022/01/27 08:47:54;;;;;;;63.75;27.42;;;;;;;1.30;99.50;100119.59;1763955;81;25658;-81
2022/01/27 08:50:22;;;;;;;60.28;24.87;;;;;;;1.31;99.52;100099.87;1764007;81;25641;-81
2022/01/27 08:52:49;;;;;;;67.75;27.13;;;;;;;1.30;99.29;100102.27;1763785;81;27374;-81
2022/01/27 08:55:16;;;;;;;59.13;25.72;;;;;;;1.34;99.24;100105.23;1763701;81;25833;-80
2022/01/27 08:57:43;;;;;;;57.85;26.05;;;;;;;1.35;99.26;100113.52;1764154;81;25603;-81
2022/01/27 09:00:13;;;;;;;63.70;25.85;;;;;;;1.38;99.18;100101.83;1763878;81;25810;-81
2022/01/27 09:02:39;;;;;;;;;;;;;;;1.41;99.19;100091.17;1766598;81;25602;-80
2022/01/27 09:05:07;;;;;;;61.20;24.52;;;;;;;1.42;98.99;100075.47;1764035;81;28045;-81
2022/01/27 09:07:34;;;;;;;56.80;25.60;;;;;;;1.46;99.01;100097.88;1763911;81;25628;-80
2022/01/27 09:10:01;;;;;;;59.80;25.02;;;;;;;1.48;98.81;100095.77;1763962;81;25445;-81
2022/01/27 09:12:27;;;;;;;55.55;24.80;;;;;;;1.49;98.71;100103.50;1764022;81;25605;-81
2022/01/27 09:14:56;;;;;;;54.85;24.45;;;;;;;1.47;98.58;100092.30;1764120;81;25652;-82
2022/01/27 09:17:26;;;;;;;53.25;24.55;;;;;;;1.51;98.37;100089.92;1764077;81;27358;-80
2022/01/27 09:19:52;;;;;;;55.20;24.23;;;;;;;1.51;98.31;100090.47;1763844;81;25652;-80
2022/01/27 09:22:19;;;;;;;48.55;24.20;;;;;;;1.54;98.11;100085.97;1763954;81;25690;-80
2022/01/27 09:24:58;;;;;;;57.75;25.10;;;;;;;1.54;98.13;100068.64;1766150;80;26344;-80
2022/01/27 09:27:19;;;;;;;50.92;23.62;;;;;;;1.57;98.17;100084.13;1763860;80;25635;-80
2022/01/27 09:29:49;;;;;;;59.15;25.75;;;;;;;1.58;97.90;100070.52;1766133;81;27177;-79
2022/01/27 09:32:16;;;;;;;47.65;22.67;;;;;;;1.60;97.84;100063.61;1765810;80;25334;-80
2022/01/27 09:34:44;;;;;;;51.25;23.15;;;;;;;1.61;97.84;100062.02;1768071;81;25240;-79
2022/01/27 09:37:12;;;;;;;47.67;23.20;;;;;;;1.61;97.66;100050.56;1769041;81;25762;-80
2022/01/27 09:39:39;;;;;;;54.05;24.35;;;;;;;1.62;97.50;100061.51;1767865;81;25405;-80
2022/01/27 09:42:07;;;;;;;50.00;23.57;;;;;;;1.61;97.38;100043.36;1766507;81;28039;-79
2022/01/27 09:44:36;;;;;;;58.65;24.23;;;;;;;1.63;97.41;100059.10;1766011;81;25671;-79
2022/01/27 09:47:07;;;;;;;50.17;23.67;;;;;;;1.62;97.35;100049.52;1766337;81;25622;-79
2022/01/27 09:49:42;;;;;;;52.00;23.27;;;;;;;1.65;97.37;100052.98;1766525;81;25630;-80
2022/01/27 09:52:06;;;;;;;55.40;23.15;;;;;;;1.66;97.40;100042.06;1765780;81;25418;-79
2022/01/27 09:54:34;;;;;;;50.05;23.15;;;;;;;1.67;97.17;100046.88;1766231;81;26916;-79
2022/01/27 09:57:03;;;;;;;46.92;22.93;;;;;;;1.67;97.18;100046.88;1766212;81;25688;-80
2022/01/27 09:59:30;;;;;;;54.80;25.02;;;;;;;1.66;97.10;100042.59;1766244;81;25702;-80
2022/01/27 10:02:05;;;;;;;55.67;23.30;;;;;;;1.66;97.05;100035.39;1766342;81;25679;-80
2022/01/27 10:04:57;;;;;;;55.30;23.22;;;;;;;1.67;97.00;100037.55;1766520;81;25737;-80
2022/01/27 10:07:33;;;;;;;51.73;23.32;;;;;;;1.66;96.86;100021.27;1765465;81;28090;-80
2022/01/27 10:10:13;;;;;;;48.78;22.30;;;;;;;1.65;96.84;100035.64;1744596;81;25366;-80
2022/01/27 10:12:49;;;;;;;49.33;23.73;;;;;;;1.64;96.75;100025.52;1766268;81;25826;-75
2022/01/27 10:15:21;;;;;;;49.90;24.32;;;;;;;1.64;96.81;100019.39;1766113;80;25392;-77
2022/01/27 10:18:10;;;;;;;46.37;22.25;;;;;;;1.64;96.78;100010.86;1766068;81;25647;-77
2022/01/27 10:20:59;;;;;;;44.40;23.62;;;;;;;1.63;96.76;100011.11;1766426;81;27365;-76
2022/01/27 10:23:33;;;;;;;48.10;21.25;;;;;;;1.66;96.84;100010.60;1767982;80;25647;-77
2022/01/27 10:26:13;;;;;;;48.83;22.58;;;;;;;1.68;96.71;100000.48;1797204;79;25452;-77
2022/01/27 10:28:51;;;;;;;46.92;21.90;;;;;;;1.68;96.70;99995.14;1798093;79;25608;-81
2022/01/27 10:31:20;;;;;;;43.80;20.65;;;;;;;1.73;96.79;99993.05;1797239;79;25686;-78
2022/01/27 10:34:02;;;;;;;47.20;22.62;;;;;;;1.74;96.65;99997.30;1798079;79;28131;-80
2022/01/27 10:36:41;;;;;;;44.00;22.05;;;;;;;1.75;96.44;99973.59;1797815;79;25626;-78
2022/01/27 10:39:15;;;;;;;;;;;;;;;1.75;96.32;99981.05;1800096;79;25291;-78
2022/01/27 10:42:05;;;;;;;46.45;22.22;;;;;;;1.74;96.30;99983.46;1797297;79;26228;-78
2022/01/27 10:47:31;;;;;;;43.28;22.02;;;;;;;1.77;96.28;99976.28;1756406;81;28121;-81
2022/01/27 10:50:01;;;;;;;45.60;22.02;;;;;;;1.78;96.18;99960.54;1756326;81;25615;-79
2022/01/27 10:52:47;;;;;;;44.75;22.80;;;;;;;1.80;96.03;99962.41;1755309;81;25771;-79
2022/01/27 10:55:19;;;;;;;49.08;23.25;;;;;;;1.81;95.95;99956.56;1755344;81;26287;-79
2022/01/27 10:57:50;;;;;;;40.52;20.40;;;;;;;1.81;95.60;99944.56;1755524;81;25630;-78
2022/01/27 11:00:20;;;;;;;39.85;21.10;;;;;;;1.82;95.69;99942.15;1732502;81;27422;-78
2022/01/27 11:03:02;;;;;;;43.87;20.65;;;;;;;1.83;95.50;99943.77;1729147;83;25600;-79
2022/01/27 11:05:34;;;;;;;39.30;20.60;;;;;;;1.85;95.49;99938.44;1756005;81;25270;-80
2022/01/27 11:08:03;;;;;;;40.45;19.40;;;;;;;1.89;95.64;99922.73;1729637;83;25624;-79
2022/01/27 11:10:30;;;;;;;37.35;19.42;;;;;;;1.93;95.50;99930.48;1755691;81;25261;-77
2022/01/27 11:12:58;;;;;;;38.63;19.67;;;;;;;1.94;94.70;99916.09;1748400;82;27521;-78
2022/01/27 11:15:25;;;;;;;37.30;19.98;;;;;;;1.96;95.09;99904.63;1748073;82;25666;-78
2022/01/27 11:17:54;;;;;;;39.27;19.95;;;;;;;1.97;94.79;99900.88;1748404;82;25695;-78
2022/01/27 11:24:07;;;;;;;36.90;18.17;;;;;;;2.01;94.39;99892.64;1752123;80;26643;-78
2022/01/27 11:26:40;;;;;;;34.00;18.15;;;;;;;2.02;93.79;99891.55;1755690;79;27305;-78
2022/01/27 11:29:07;;;;;;;29.45;16.80;;;;;;;2.03;94.12;99879.83;1734570;80;25626;-80
2022/01/27 11:31:51;;;;;;;28.20;15.90;;;;;;;2.05;93.87;99876.91;1732896;81;25628;-79
2022/01/27 11:34:18;;;;;;;31.25;16.30;;;;;;;2.05;93.89;99875.58;1731952;82;25627;-80
2022/01/27 11:37:04;;;;;;;29.63;15.58;;;;;;;2.07;93.65;99875.31;1732936;82;25187;-80
2022/01/27 11:39:49;;;;;;;27.52;16.05;;;;;;;2.07;93.98;99856.09;1732797;82;27333;-80
2022/01/27 11:42:27;;;;;;;27.98;16.20;;;;;;;2.08;94.06;99858.22;1709114;82;25369;-80
2022/01/27 11:44:54;;;;;;;27.85;16.80;;;;;;;2.11;94.10;99860.38;1706854;82;25606;-80
2022/01/27 11:47:21;;;;;;;29.25;16.12;;;;;;;2.09;93.90;99860.62;1732013;82;26149;-80
2022/01/27 11:52:37;;;;;;;30.85;16.23;;;;;;;2.07;94.33;99849.42;1732161;82;27346;-77
2022/01/27 11:55:31;;;;;;;29.60;16.00;;;;;;;2.04;94.23;99840.09;1730154;81;25434;-77
2022/01/27 11:58:02;;;;;;;26.35;16.17;;;;;;;2.06;94.50;99839.84;1710149;81;26512;-77
2022/01/27 12:00:30;;;;;;;26.68;15.63;;;;;;;2.03;94.13;99839.81;1696954;84;25673;-77
2022/01/27 12:03:02;;;;;;;30.60;16.50;;;;;;;2.05;94.25;99828.88;1702640;84;25817;-76
2022/01/27 12:05:35;;;;;;;29.18;15.88;;;;;;;2.05;94.60;99826.22;1746885;81;25819;-77
2022/01/27 12:08:20;;;;;;;25.62;15.55;;;;;;;2.08;94.28;99827.03;1752090;81;26220;-77
2022/01/27 12:10:58;;;;;;;25.17;13.88;;;;;;;2.09;94.29;99819.81;1728530;81;25677;-78
2022/01/27 12:13:35;;;;;;;23.75;13.68;;;;;;;2.09;94.28;99817.94;1761943;80;26497;-77
2022/01/27 12:19:12;;;;;;;24.63;13.90;;;;;;;2.07;93.78;99801.95;1733333;81;27923;-76
2022/01/27 12:21:55;;;;;;;25.75;13.90;;;;;;;2.08;94.10;99802.20;1748970;81;25850;-77
2022/01/27 12:24:28;;;;;;;24.85;13.90;;;;;;;2.09;93.80;99794.47;1726178;83;25615;-77
2022/01/27 12:27:16;;;;;;;22.98;12.75;;;;;;;2.09;93.54;99786.47;1728894;82;25606;-76